Terminal Aerodrome Forecast
Issued by NWS Grand Forks, ND

Home | Current Version | Previous Version | Text Only | Print | Product List | Glossary Off
Versions: 1 2 3 4 5 6 7 8 9 10 11 12 13 14 15 16 17 18 19 20 21

000
FTUS43 KFGF 261720
TAFGFK
TAF
KGFK 261720Z 2618/2718 02018KT P6SM OVC015
      TEMPO 2618/2622 2SM -SN OVC003
     FM262200 02015KT P6SM OVC010
      TEMPO 2622/2701 1SM -SN OVC003
     FM270100 02013KT P6SM OVC010
     FM271200 35010KT P6SM BKN020
     FM271700 35014KT P6SM BKN025=

USA.gov is the U.S. government's official web portal to all federal, state and local government web resources and services.